Time;durP1;ratioP1;P1;durP2;ratioP2;P2;SDS_P1;SDS_P2;PMS_P1;PMS_P2;Temp;Humidity;BMP_temperature;BMP_pressure;BME280_temperature;BME280_humidity;BME280_pressure;Samples;Min_cycle;Max_cycle;Signal;HPM_P1;HPM_P2
2021/04/24 00:00:27;;;;;;;33.30;21.73;;;5.00;90.40;;;;;;2073283;28;20014;-69
2021/04/24 00:01:32;;;;;;;33.80;21.48;;;4.90;90.30;;;;;;2073200;28;20512;-69
2021/04/24 00:02:33;;;;;;;34.75;22.15;;;4.90;90.30;;;;;;2073200;28;20037;-69
2021/04/24 00:03:34;;;;;;;35.10;21.65;;;4.90;90.30;;;;;;2073263;28;20247;-69
2021/04/24 00:04:36;;;;;;;37.35;23.35;;;4.90;90.30;;;;;;2072493;28;20021;-69
2021/04/24 00:05:42;;;;;;;32.90;22.25;;;4.90;90.40;;;;;;2072688;28;20041;-69
2021/04/24 00:06:43;;;;;;;34.88;22.23;;;4.90;90.50;;;;;;2073236;28;20022;-69
2021/04/24 00:07:44;;;;;;;33.95;22.67;;;4.90;90.50;;;;;;2072528;28;20034;-69
2021/04/24 00:08:45;;;;;;;38.67;23.02;;;4.90;90.50;;;;;;2072412;28;20086;-68
2021/04/24 00:09:48;;;;;;;37.47;23.52;;;4.90;90.50;;;;;;2065003;28;20117;-68
2021/04/24 00:10:49;;;;;;;36.05;22.33;;;4.80;90.50;;;;;;2069099;28;20067;-69
2021/04/24 00:11:49;;;;;;;36.63;22.67;;;4.80;90.50;;;;;;2072564;28;20030;-69
2021/04/24 00:12:50;;;;;;;36.25;22.45;;;4.90;90.50;;;;;;2072679;28;20033;-69
2021/04/24 00:13:52;;;;;;;34.67;22.17;;;4.80;90.50;;;;;;2069155;28;20026;-69
2021/04/24 00:14:52;;;;;;;32.55;21.80;;;4.80;90.50;;;;;;2065245;28;20029;-69
2021/04/24 00:15:53;;;;;;;32.53;21.63;;;4.80;90.40;;;;;;2064828;28;20040;-69
2021/04/24 00:16:55;;;;;;;36.53;22.17;;;4.80;90.40;;;;;;2069648;28;20500;-69
2021/04/24 00:17:55;;;;;;;33.35;21.27;;;4.80;90.40;;;;;;2073314;28;20030;-69
2021/04/24 00:18:56;;;;;;;34.33;21.90;;;4.80;90.40;;;;;;2073643;28;20030;-69
2021/04/24 00:19:56;;;;;;;31.77;20.55;;;4.80;90.40;;;;;;2073541;28;20030;-69
2021/04/24 00:20:57;;;;;;;31.45;21.08;;;4.80;90.40;;;;;;2073029;28;20037;-69
2021/04/24 00:21:58;;;;;;;36.42;21.48;;;4.80;90.50;;;;;;2072311;28;20493;-69
2021/04/24 00:22:58;;;;;;;34.97;21.75;;;4.80;90.60;;;;;;2072345;28;20029;-69
2021/04/24 00:23:59;;;;;;;35.45;20.27;;;4.70;90.60;;;;;;2073023;28;20029;-69
2021/04/24 00:25:00;;;;;;;33.10;20.85;;;4.80;90.90;;;;;;2072759;28;20470;-69
2021/04/24 00:26:01;;;;;;;34.97;21.58;;;4.70;90.70;;;;;;2072594;28;20466;-69
2021/04/24 00:27:01;;;;;;;34.92;21.48;;;4.70;90.80;;;;;;2072954;28;20033;-69
2021/04/24 00:28:02;;;;;;;35.13;21.58;;;4.70;90.80;;;;;;2072148;28;20030;-68
2021/04/24 00:29:04;;;;;;;31.70;21.10;;;4.70;91.20;;;;;;2066410;28;20063;-69
2021/04/24 00:30:06;;;;;;;36.90;21.23;;;4.70;90.80;;;;;;2070762;28;20048;-69
2021/04/24 00:31:07;;;;;;;31.98;20.83;;;4.70;90.80;;;;;;2072831;28;20029;-68
2021/04/24 00:32:08;;;;;;;34.42;21.58;;;4.70;90.80;;;;;;2072291;28;20434;-68
2021/04/24 00:33:09;;;;;;;34.70;21.77;;;4.70;90.90;;;;;;2072290;28;20108;-68
2021/04/24 00:34:10;;;;;;;32.22;21.10;;;4.70;90.90;;;;;;2072342;28;20025;-68
2021/04/24 00:35:12;;;;;;;33.65;21.38;;;4.70;90.90;;;;;;2065484;28;20169;-68
2021/04/24 00:36:13;;;;;;;32.97;20.92;;;4.70;90.90;;;;;;2064444;28;20049;-68
2021/04/24 00:37:14;;;;;;;32.13;21.25;;;4.60;90.80;;;;;;2072124;28;20532;-68
2021/04/24 00:38:14;;;;;;;31.98;21.23;;;4.60;90.80;;;;;;2072798;28;20030;-68
2021/04/24 00:39:15;;;;;;;33.50;21.00;;;4.60;90.90;;;;;;2072794;28;20060;-69
2021/04/24 00:40:17;;;;;;;34.45;22.02;;;4.60;90.90;;;;;;2065249;28;20031;-68
2021/04/24 00:41:18;;;;;;;33.55;21.60;;;4.60;90.90;;;;;;2071952;28;20033;-68
2021/04/24 00:42:19;;;;;;;34.88;22.52;;;4.60;90.90;;;;;;2072200;28;20022;-69
2021/04/24 00:43:19;;;;;;;33.28;21.02;;;4.60;90.90;;;;;;2072221;28;20018;-69
2021/04/24 00:44:21;;;;;;;34.25;21.45;;;4.60;91.00;;;;;;2072193;28;20038;-69
2021/04/24 00:45:24;;;;;;;35.97;22.17;;;4.50;91.00;;;;;;2065030;28;20033;-69
2021/04/24 00:46:24;;;;;;;37.45;22.67;;;4.60;91.10;;;;;;2072430;28;20026;-68
2021/04/24 00:47:26;;;;;;;35.88;23.05;;;4.50;91.10;;;;;;2072906;28;20030;-69
2021/04/24 00:48:27;;;;;;;35.78;22.33;;;4.50;91.20;;;;;;2072767;28;20034;-68
2021/04/24 00:49:27;;;;;;;37.20;21.95;;;4.50;91.10;;;;;;2072763;28;20125;-68
2021/04/24 00:50:31;;;;;;;34.15;22.08;;;4.50;91.10;;;;;;2072753;28;20065;-69
2021/04/24 00:51:31;;;;;;;33.90;22.02;;;4.50;91.10;;;;;;2072871;28;20417;-69
2021/04/24 00:52:32;;;;;;;33.97;22.42;;;4.50;91.20;;;;;;2072803;28;20025;-68
2021/04/24 00:53:34;;;;;;;36.72;22.42;;;4.50;91.10;;;;;;2073197;28;20539;-68
2021/04/24 00:54:34;;;;;;;35.88;22.13;;;4.50;91.10;;;;;;2072530;28;20116;-69
2021/04/24 00:55:36;;;;;;;36.47;22.95;;;4.50;91.10;;;;;;2070694;28;20076;-68
2021/04/24 00:56:37;;;;;;;32.15;21.35;;;4.40;91.10;;;;;;2066753;28;20042;-69
2021/04/24 00:57:39;;;;;;;35.00;22.02;;;4.50;91.10;;;;;;2072604;28;20077;-68
2021/04/24 00:58:40;;;;;;;34.70;21.90;;;4.40;91.10;;;;;;2071753;28;20169;-69
2021/04/24 00:59:41;;;;;;;35.10;22.15;;;4.40;91.10;;;;;;2070257;28;20022;-69
2021/04/24 01:00:42;;;;;;;35.08;21.90;;;4.40;91.20;;;;;;2075460;28;20051;-68
2021/04/24 01:01:43;;;;;;;34.72;21.92;;;4.40;91.30;;;;;;2069448;28;20080;-67
2021/04/24 01:02:43;;;;;;;35.08;22.30;;;4.30;91.30;;;;;;2063943;28;20034;-69
2021/04/24 01:03:45;;;;;;;37.78;22.52;;;4.30;91.40;;;;;;2075385;28;20619;-67
2021/04/24 01:04:46;;;;;;;34.55;21.60;;;4.30;91.40;;;;;;2072202;28;20385;-68
2021/04/24 01:05:47;;;;;;;35.88;21.88;;;4.30;91.40;;;;;;2068108;28;20035;-68
2021/04/24 01:06:49;;;;;;;35.97;22.52;;;4.30;91.50;;;;;;2075918;28;20025;-68
2021/04/24 01:07:50;;;;;;;35.85;22.95;;;4.30;91.50;;;;;;2072698;28;20014;-69
2021/04/24 01:08:51;;;;;;;32.67;22.27;;;4.30;91.60;;;;;;2072571;28;20030;-69
2021/04/24 01:09:51;;;;;;;36.97;22.48;;;4.30;91.60;;;;;;2072009;28;20053;-68
2021/04/24 01:10:52;;;;;;;34.53;22.20;;;4.30;91.70;;;;;;2071919;28;20125;-68
2021/04/24 01:11:53;;;;;;;38.67;22.52;;;4.30;91.70;;;;;;2071971;28;20076;-68
2021/04/24 01:12:53;;;;;;;37.58;21.95;;;4.30;91.70;;;;;;2071763;28;20410;-68
2021/04/24 01:13:54;;;;;;;36.13;22.63;;;4.20;91.70;;;;;;2072712;28;20033;-68
2021/04/24 01:14:55;;;;;;;34.28;22.85;;;4.20;91.80;;;;;;2072670;28;20099;-68
2021/04/24 01:15:55;;;;;;;33.88;22.20;;;4.20;91.90;;;;;;2072185;28;20076;-68
2021/04/24 01:16:56;;;;;;;35.63;22.23;;;4.20;91.90;;;;;;2072583;28;20101;-68
2021/04/24 01:17:57;;;;;;;34.33;21.73;;;4.20;92.00;;;;;;2067568;28;20053;-68
2021/04/24 01:18:57;;;;;;;35.45;21.80;;;4.20;92.00;;;;;;2069396;28;20053;-69
2021/04/24 01:19:58;;;;;;;33.35;21.80;;;4.20;92.10;;;;;;2072513;28;20405;-67
2021/04/24 01:21:02;;;;;;;31.48;21.55;;;4.20;92.20;;;;;;2072437;28;20037;-68
2021/04/24 01:22:08;;;;;;;32.92;21.40;;;4.20;92.20;;;;;;2072459;28;20035;-68
2021/04/24 01:23:09;;;;;;;36.38;21.75;;;4.10;92.30;;;;;;2072533;28;20116;-68
2021/04/24 01:24:11;;;;;;;32.33;21.02;;;4.20;92.30;;;;;;2072499;28;20401;-68
2021/04/24 01:25:15;;;;;;;31.70;20.55;;;4.10;92.30;;;;;;2071130;28;20074;-68
2021/04/24 01:26:16;;;;;;;32.25;20.60;;;4.10;92.30;;;;;;2071660;28;20171;-69
2021/04/24 01:27:16;;;;;;;32.53;21.33;;;4.10;92.30;;;;;;2071919;28;20060;-68
2021/04/24 01:28:17;;;;;;;32.05;20.95;;;4.10;92.30;;;;;;2071815;28;20034;-69
2021/04/24 01:29:18;;;;;;;33.78;20.50;;;4.10;92.30;;;;;;2079682;28;20033;-69
2021/04/24 01:30:23;;;;;;;34.55;21.10;;;4.10;92.40;;;;;;2079997;28;20560;-68
2021/04/24 01:31:23;;;;;;;33.33;21.10;;;4.10;92.40;;;;;;2072461;28;20118;-68
2021/04/24 01:32:24;;;;;;;30.63;20.35;;;4.10;92.50;;;;;;2072558;28;20473;-69
2021/04/24 01:33:24;;;;;;;32.05;21.13;;;4.10;92.50;;;;;;2071921;28;20525;-69
2021/04/24 01:34:26;;;;;;;31.42;19.92;;;4.00;92.50;;;;;;2071997;28;20030;-69
2021/04/24 01:35:30;;;;;;;30.75;20.50;;;4.00;92.50;;;;;;2072428;28;20085;-68
2021/04/24 01:36:31;;;;;;;33.15;20.50;;;4.00;92.50;;;;;;2070458;28;20018;-68
2021/04/24 01:37:31;;;;;;;32.05;20.00;;;4.00;92.60;;;;;;2066099;28;20065;-68
2021/04/24 01:38:32;;;;;;;29.92;19.58;;;4.00;92.70;;;;;;2071726;28;20030;-68
2021/04/24 01:39:33;;;;;;;36.60;21.30;;;4.00;92.70;;;;;;2071716;28;20030;-68
2021/04/24 01:40:34;;;;;;;35.17;21.42;;;4.00;92.70;;;;;;2072413;28;20429;-68
2021/04/24 01:41:35;;;;;;;33.35;20.90;;;4.00;92.80;;;;;;2072417;28;20037;-68
2021/04/24 01:42:35;;;;;;;30.80;20.10;;;4.00;92.80;;;;;;2072484;28;20033;-68
2021/04/24 01:43:36;;;;;;;32.40;20.63;;;3.90;92.80;;;;;;2072394;28;20034;-68
2021/04/24 01:44:36;;;;;;;31.83;19.35;;;3.90;92.90;;;;;;2071781;28;20148;-68
2021/04/24 01:45:38;;;;;;;31.70;20.58;;;3.90;93.00;;;;;;2071792;28;20037;-68
2021/04/24 01:46:38;;;;;;;35.03;21.02;;;3.90;93.00;;;;;;2071459;28;20061;-69
2021/04/24 01:47:41;;;;;;;32.35;20.52;;;3.90;93.00;;;;;;2071764;28;20489;-68
2021/04/24 01:48:41;;;;;;;31.27;20.23;;;3.90;93.10;;;;;;2072174;28;20026;-68
2021/04/24 01:49:42;;;;;;;30.73;19.20;;;3.90;93.10;;;;;;2072387;28;20036;-68
2021/04/24 01:50:46;;;;;;;27.73;19.20;;;3.90;93.10;;;;;;2072321;28;20062;-68
2021/04/24 01:51:46;;;;;;;29.38;19.55;;;3.90;93.10;;;;;;2071806;28;20488;-67
2021/04/24 01:52:49;;;;;;;30.30;20.00;;;3.90;93.10;;;;;;2071928;28;20033;-68
2021/04/24 01:53:53;;;;;;;33.92;19.85;;;3.90;93.10;;;;;;2072331;28;20374;-68
2021/04/24 01:54:53;;;;;;;30.15;20.17;;;3.90;93.20;;;;;;2071951;28;20061;-69
2021/04/24 01:55:54;;;;;;;32.50;20.27;;;3.80;93.20;;;;;;2071979;28;20033;-68
2021/04/24 01:56:57;;;;;;;30.63;19.73;;;3.80;93.30;;;;;;2072502;28;20022;-68
2021/04/24 01:57:58;;;;;;;31.33;19.77;;;3.80;93.30;;;;;;2072561;28;20397;-69
2021/04/24 01:58:59;;;;;;;30.00;19.40;;;3.80;93.30;;;;;;2072497;28;20022;-69
2021/04/24 02:00:00;;;;;;;32.75;20.45;;;3.80;93.30;;;;;;2072284;28;20556;-69
2021/04/24 02:01:05;;;;;;;32.38;20.20;;;3.80;93.40;;;;;;2072415;28;20428;-68
2021/04/24 02:02:06;;;;;;;32.92;20.92;;;3.80;93.40;;;;;;2072201;28;20022;-69
2021/04/24 02:03:10;;;;;;;30.95;20.05;;;3.80;93.40;;;;;;2072260;28;20728;-69
2021/04/24 02:04:11;;;;;;;33.78;19.42;;;3.80;93.40;;;;;;2072239;28;20032;-68
2021/04/24 02:05:14;;;;;;;30.92;20.00;;;3.80;93.50;;;;;;2072172;28;20030;-68
2021/04/24 02:06:15;;;;;;;32.83;20.48;;;3.80;93.60;;;;;;2064521;28;20378;-69
2021/04/24 02:07:15;;;;;;;28.55;19.23;;;3.70;93.50;;;;;;2071674;28;20041;-69
2021/04/24 02:08:21;;;;;;;29.95;18.90;;;3.80;93.60;;;;;;2072397;28;20025;-69
2021/04/24 02:09:23;;;;;;;33.15;20.75;;;3.80;93.70;;;;;;2071317;28;20034;-69
2021/04/24 02:10:25;;;;;;;36.67;21.23;;;3.80;93.70;;;;;;2071618;28;20041;-69
2021/04/24 02:11:26;;;;;;;34.58;21.30;;;3.80;93.80;;;;;;2072685;28;20397;-69
2021/04/24 02:12:27;;;;;;;34.50;20.48;;;3.80;93.90;;;;;;2072725;28;20108;-70
2021/04/24 02:13:31;;;;;;;30.70;20.00;;;3.80;93.90;;;;;;2072571;28;20026;-67
2021/04/24 02:14:52;;;;;;;30.67;19.92;;;3.80;93.90;;;;;;2072683;28;20101;-67
2021/04/24 02:15:53;;;;;;;32.22;20.52;;;3.80;93.90;;;;;;2079259;28;20063;-68
2021/04/24 02:16:54;;;;;;;31.25;20.27;;;3.70;93.90;;;;;;2079663;28;20026;-68
2021/04/24 02:17:54;;;;;;;31.48;19.42;;;3.70;93.90;;;;;;2071394;28;20037;-68
2021/04/24 02:18:55;;;;;;;28.42;19.63;;;3.70;94.00;;;;;;2071578;28;20032;-68
2021/04/24 02:19:55;;;;;;;31.90;20.45;;;3.80;94.00;;;;;;2072103;28;20064;-67
2021/04/24 02:20:56;;;;;;;33.40;20.30;;;3.80;94.00;;;;;;2072188;28;20030;-68
2021/04/24 02:21:57;;;;;;;33.92;20.33;;;3.70;93.90;;;;;;2071435;28;20025;-68
2021/04/24 02:22:57;;;;;;;30.70;19.70;;;3.80;94.00;;;;;;2071698;28;20033;-68
2021/04/24 02:23:58;;;;;;;32.75;20.48;;;3.70;94.00;;;;;;2072236;28;20026;-68
2021/04/24 02:25:03;;;;;;;31.00;20.13;;;3.70;94.00;;;;;;2071800;28;20104;-67
2021/04/24 02:26:05;;;;;;;31.88;19.90;;;3.70;94.00;;;;;;2066053;28;20015;-67
2021/04/24 02:27:07;;;;;;;32.20;19.85;;;3.70;93.90;;;;;;2069598;28;20051;-67
2021/04/24 02:28:08;;;;;;;31.58;19.38;;;3.70;94.00;;;;;;2072022;28;20029;-68
2021/04/24 02:29:09;;;;;;;30.17;19.13;;;3.70;94.00;;;;;;2073096;28;20498;-68
2021/04/24 02:30:12;;;;;;;36.25;20.40;;;3.70;94.00;;;;;;2078502;28;20051;-69
2021/04/24 02:31:13;;;;;;;31.65;19.90;;;3.80;94.30;;;;;;2072778;28;20410;-68
2021/04/24 02:32:15;;;;;;;32.70;19.77;;;3.70;94.00;;;;;;2072987;28;20053;-67
2021/04/24 02:33:16;;;;;;;35.33;20.90;;;3.70;94.10;;;;;;2073243;28;20370;-68
2021/04/24 02:34:17;;;;;;;32.40;20.40;;;3.70;94.00;;;;;;2073698;28;20060;-68
2021/04/24 02:35:23;;;;;;;29.40;19.40;;;3.80;94.10;;;;;;2073571;28;20033;-69
2021/04/24 02:36:24;;;;;;;31.35;19.77;;;3.80;94.00;;;;;;2073160;28;20022;-68
2021/04/24 02:37:24;;;;;;;34.22;20.40;;;3.80;94.00;;;;;;2073472;28;20073;-68
2021/04/24 02:38:29;;;;;;;32.05;19.08;;;3.80;94.00;;;;;;2072519;28;20029;-68
2021/04/24 02:39:35;;;;;;;29.20;18.90;;;3.80;94.00;;;;;;2066176;28;20053;-68
2021/04/24 02:40:36;;;;;;;30.38;19.60;;;3.80;93.90;;;;;;2073015;28;20026;-68
2021/04/24 02:41:37;;;;;;;33.03;18.80;;;3.80;93.90;;;;;;2073003;28;20088;-68
2021/04/24 02:42:37;;;;;;;31.48;18.75;;;3.80;94.00;;;;;;2071022;28;20108;-68
2021/04/24 02:43:38;;;;;;;28.88;18.95;;;3.80;93.90;;;;;;2068437;28;20035;-68
2021/04/24 02:44:39;;;;;;;32.22;20.08;;;3.80;94.00;;;;;;2074954;28;20117;-67
2021/04/24 02:45:40;;;;;;;29.73;19.00;;;3.80;93.90;;;;;;2075180;28;20034;-69
2021/04/24 02:46:41;;;;;;;31.60;19.23;;;3.80;93.90;;;;;;2074853;28;20032;-68
2021/04/24 02:47:42;;;;;;;29.70;19.02;;;3.80;93.90;;;;;;2074385;28;20037;-68
2021/04/24 02:48:43;;;;;;;29.65;19.10;;;3.80;93.80;;;;;;2071589;28;20026;-68
2021/04/24 02:49:43;;;;;;;31.52;19.30;;;3.80;93.90;;;;;;2070504;28;20053;-68
2021/04/24 02:50:45;;;;;;;29.90;19.05;;;3.80;93.90;;;;;;2074930;28;20042;-69
2021/04/24 02:51:46;;;;;;;28.92;19.05;;;3.80;93.90;;;;;;2071449;28;20072;-68
2021/04/24 02:52:47;;;;;;;32.78;19.95;;;3.80;94.00;;;;;;2068182;28;20758;-68
2021/04/24 02:53:47;;;;;;;30.45;19.33;;;3.80;94.00;;;;;;2068861;28;20026;-68
2021/04/24 02:54:48;;;;;;;30.75;19.83;;;3.80;93.90;;;;;;2067594;28;20022;-68
2021/04/24 02:55:48;;;;;;;31.95;19.80;;;3.90;93.90;;;;;;2071948;28;20022;-68
2021/04/24 02:56:49;;;;;;;29.85;19.17;;;3.90;94.00;;;;;;2072041;28;20092;-68
2021/04/24 02:57:50;;;;;;;30.58;19.85;;;3.90;93.90;;;;;;2072188;28;20030;-68
2021/04/24 02:58:50;;;;;;;32.08;19.48;;;3.90;93.90;;;;;;2072099;28;20101;-68
2021/04/24 02:59:51;;;;;;;31.23;19.65;;;3.90;93.90;;;;;;2072118;28;20076;-68
2021/04/24 03:00:52;;;;;;;31.73;19.83;;;3.90;93.80;;;;;;2072205;28;20018;-68
2021/04/24 03:01:53;;;;;;;31.10;19.13;;;3.90;93.70;;;;;;2072220;28;20026;-71
2021/04/24 03:03:09;;;;;;;33.03;20.75;;;4.00;93.70;;;;;;2072242;28;20033;-68
2021/04/24 03:04:13;;;;;;;30.50;19.35;;;4.00;93.70;;;;;;2072477;28;20382;-67
2021/04/24 03:05:16;;;;;;;32.28;19.52;;;3.90;93.70;;;;;;2072578;28;20026;-69
2021/04/24 03:06:17;;;;;;;29.48;19.00;;;3.90;93.80;;;;;;2072520;28;20022;-68
2021/04/24 03:07:17;;;;;;;29.58;19.48;;;3.90;93.70;;;;;;2072269;28;20551;-69
2021/04/24 03:08:18;;;;;;;32.83;19.48;;;3.90;94.00;;;;;;2064324;28;20030;-68
2021/04/24 03:09:19;;;;;;;30.38;18.90;;;3.90;93.80;;;;;;2072043;28;20041;-68
2021/04/24 03:10:20;;;;;;;31.83;19.05;;;3.90;93.80;;;;;;2072368;28;20026;-68
2021/04/24 03:11:20;;;;;;;30.13;19.52;;;3.90;93.80;;;;;;2064391;28;20488;-69
2021/04/24 03:12:21;;;;;;;30.92;19.20;;;3.90;93.80;;;;;;2072389;28;20029;-69
2021/04/24 03:13:21;;;;;;;28.33;19.27;;;3.90;93.80;;;;;;2064529;28;20022;-68
2021/04/24 03:14:22;;;;;;;32.28;19.35;;;3.90;93.80;;;;;;2072352;28;20045;-68
2021/04/24 03:15:23;;;;;;;32.38;19.50;;;4.00;93.70;;;;;;2071432;28;20022;-69
2021/04/24 03:16:24;;;;;;;27.95;18.77;;;3.90;93.70;;;;;;2071237;28;20206;-69
2021/04/24 03:17:25;;;;;;;29.35;19.17;;;4.00;93.80;;;;;;2072754;28;20026;-69
2021/04/24 03:18:25;;;;;;;30.45;19.63;;;4.00;93.80;;;;;;2072588;28;20018;-68
2021/04/24 03:19:26;;;;;;;28.33;19.38;;;4.00;93.70;;;;;;2071480;28;20080;-69
2021/04/24 03:20:26;;;;;;;32.00;19.08;;;3.90;93.70;;;;;;2071383;28;20026;-69
2021/04/24 03:21:28;;;;;;;28.75;19.20;;;4.00;93.70;;;;;;2072747;28;20124;-68
2021/04/24 03:22:28;;;;;;;27.90;18.60;;;4.00;93.70;;;;;;2066738;28;20082;-68
2021/04/24 03:23:29;;;;;;;27.13;18.23;;;4.00;93.60;;;;;;2073386;28;20410;-68
2021/04/24 03:24:30;;;;;;;28.83;18.73;;;4.00;93.60;;;;;;2073153;28;20026;-68
2021/04/24 03:25:30;;;;;;;32.45;19.02;;;4.00;93.60;;;;;;2073416;28;20493;-68
2021/04/24 03:26:32;;;;;;;29.33;19.10;;;4.00;93.60;;;;;;2072582;28;20034;-68
2021/04/24 03:27:33;;;;;;;28.80;18.42;;;4.00;93.60;;;;;;2072931;28;20034;-68
2021/04/24 03:28:33;;;;;;;30.02;19.05;;;4.00;93.60;;;;;;2073482;28;20105;-67
2021/04/24 03:29:34;;;;;;;30.58;19.33;;;4.00;93.50;;;;;;2073350;28;20033;-68
2021/04/24 03:30:34;;;;;;;28.50;18.90;;;4.00;93.70;;;;;;2073308;28;20501;-67
2021/04/24 03:31:35;;;;;;;30.05;18.58;;;4.00;93.50;;;;;;2072687;28;20022;-67
2021/04/24 03:32:36;;;;;;;30.50;19.40;;;4.00;93.60;;;;;;2072740;28;20026;-66
2021/04/24 03:33:37;;;;;;;29.70;19.65;;;3.90;93.50;;;;;;2074944;28;20030;-68
2021/04/24 03:34:38;;;;;;;28.45;18.70;;;3.90;93.50;;;;;;2072720;28;20093;-68
2021/04/24 03:35:39;;;;;;;30.92;19.27;;;3.90;93.60;;;;;;2072701;28;20054;-68
2021/04/24 03:36:40;;;;;;;29.30;18.48;;;3.90;93.70;;;;;;2073028;28;20028;-68
2021/04/24 03:37:41;;;;;;;29.42;18.98;;;3.90;93.60;;;;;;2073315;28;20025;-68
2021/04/24 03:38:41;;;;;;;30.75;19.73;;;3.90;93.60;;;;;;2073160;28;20104;-67
2021/04/24 03:39:42;;;;;;;28.33;18.50;;;3.90;93.60;;;;;;2073281;28;20037;-67
2021/04/24 03:40:43;;;;;;;32.03;19.38;;;3.90;93.70;;;;;;2073345;28;20382;-68
2021/04/24 03:41:43;;;;;;;30.17;18.83;;;3.90;93.70;;;;;;2073377;28;20033;-67
2021/04/24 03:42:44;;;;;;;32.92;19.73;;;3.90;93.70;;;;;;2072728;28;20042;-67
2021/04/24 03:43:45;;;;;;;33.45;19.77;;;3.90;93.70;;;;;;2072633;28;20064;-68
2021/04/24 03:44:45;;;;;;;31.63;19.70;;;3.90;93.70;;;;;;2080788;28;20389;-68
2021/04/24 03:45:46;;;;;;;32.83;20.17;;;3.80;93.60;;;;;;2072899;28;20022;-68
2021/04/24 03:46:46;;;;;;;31.23;19.08;;;3.80;93.60;;;;;;2072739;28;20029;-67
2021/04/24 03:47:49;;;;;;;29.55;18.95;;;3.80;93.60;;;;;;2072564;28;20026;-67
2021/04/24 03:48:50;;;;;;;28.85;18.95;;;3.80;93.60;;;;;;2080600;28;20040;-67
2021/04/24 03:49:50;;;;;;;29.25;19.58;;;3.80;93.60;;;;;;2073443;28;20040;-67
2021/04/24 03:50:51;;;;;;;29.75;18.80;;;3.80;93.80;;;;;;2072651;28;20107;-69
2021/04/24 03:51:52;;;;;;;26.60;18.08;;;3.80;93.70;;;;;;2072635;28;20026;-68
2021/04/24 03:52:53;;;;;;;30.75;18.77;;;3.80;93.70;;;;;;2072566;28;20104;-68
2021/04/24 03:53:54;;;;;;;29.13;18.63;;;3.80;93.80;;;;;;2072664;28;20515;-68
2021/04/24 03:54:55;;;;;;;31.20;19.35;;;3.80;93.80;;;;;;2072120;28;20053;-69
2021/04/24 03:55:55;;;;;;;30.67;18.55;;;3.80;93.80;;;;;;2072379;28;20069;-69
2021/04/24 03:56:59;;;;;;;28.10;18.25;;;3.80;93.80;;;;;;2072782;28;20022;-68
2021/04/24 03:58:00;;;;;;;27.15;18.13;;;3.80;93.80;;;;;;2072754;28;20370;-69
2021/04/24 03:59:01;;;;;;;27.25;18.48;;;3.70;93.80;;;;;;2073288;28;20033;-70
2021/04/24 04:00:06;;;;;;;27.52;18.27;;;3.70;93.90;;;;;;2072641;28;20053;-68
2021/04/24 04:01:07;;;;;;;28.80;19.05;;;3.70;94.00;;;;;;2072575;28;20116;-68
2021/04/24 04:02:08;;;;;;;31.35;18.85;;;3.70;93.90;;;;;;2079170;28;20148;-68
2021/04/24 04:03:09;;;;;;;28.33;18.60;;;3.70;94.00;;;;;;2073115;28;20022;-68
2021/04/24 04:04:10;;;;;;;28.65;18.45;;;3.70;94.00;;;;;;2073145;28;20026;-68
2021/04/24 04:05:12;;;;;;;31.75;19.27;;;3.70;94.10;;;;;;2073154;28;20457;-68
2021/04/24 04:06:13;;;;;;;26.45;18.00;;;3.70;94.10;;;;;;2072678;28;20022;-68
2021/04/24 04:07:14;;;;;;;33.85;19.13;;;3.70;94.10;;;;;;2072541;28;20113;-68
2021/04/24 04:08:15;;;;;;;28.67;18.45;;;3.70;94.20;;;;;;2072533;28;20567;-68
2021/04/24 04:09:15;;;;;;;31.15;19.30;;;3.60;94.20;;;;;;2073016;28;20112;-68
2021/04/24 04:10:17;;;;;;;29.27;18.33;;;3.70;94.20;;;;;;2073095;28;20030;-68
2021/04/24 04:11:18;;;;;;;28.10;18.65;;;3.70;94.20;;;;;;2073037;28;20022;-68
2021/04/24 04:12:19;;;;;;;26.08;18.25;;;3.70;94.20;;;;;;2072418;28;20731;-68
2021/04/24 04:13:19;;;;;;;30.65;18.27;;;3.70;94.20;;;;;;2072455;28;20057;-68
2021/04/24 04:14:20;;;;;;;32.35;19.63;;;3.70;94.20;;;;;;2073120;28;20032;-69
2021/04/24 04:15:22;;;;;;;28.27;19.10;;;3.70;94.20;;;;;;2073101;28;20133;-68
2021/04/24 04:16:23;;;;;;;29.90;18.85;;;3.70;94.10;;;;;;2080134;28;20033;-68
2021/04/24 04:17:24;;;;;;;28.77;19.80;;;3.70;94.20;;;;;;2080509;28;20022;-69
2021/04/24 04:18:25;;;;;;;26.88;18.48;;;3.80;94.20;;;;;;2072892;28;20385;-68
2021/04/24 04:19:25;;;;;;;28.52;19.00;;;3.80;94.10;;;;;;2072982;28;20034;-68
2021/04/24 04:20:26;;;;;;;30.55;19.60;;;3.80;94.10;;;;;;2072941;28;20037;-69
2021/04/24 04:21:26;;;;;;;30.63;19.65;;;3.90;94.10;;;;;;2073018;28;20033;-68
2021/04/24 04:22:27;;;;;;;27.88;18.83;;;3.90;94.00;;;;;;2072897;28;20180;-68
2021/04/24 04:23:28;;;;;;;29.27;19.45;;;3.90;94.00;;;;;;2072958;28;20121;-68
2021/04/24 04:24:28;;;;;;;27.95;18.73;;;3.90;93.90;;;;;;2072585;28;20033;-68
2021/04/24 04:25:29;;;;;;;30.45;19.10;;;4.00;93.80;;;;;;2072920;28;20037;-68
2021/04/24 04:26:29;;;;;;;32.28;20.00;;;4.00;93.70;;;;;;2072600;28;20034;-68
2021/04/24 04:27:30;;;;;;;29.08;18.85;;;4.10;93.60;;;;;;2072885;28;20141;-69
2021/04/24 04:28:31;;;;;;;27.80;18.40;;;4.10;93.50;;;;;;2072889;28;20754;-68
2021/04/24 04:29:32;;;;;;;30.27;18.20;;;4.20;93.40;;;;;;2072903;28;20026;-68
2021/04/24 04:30:34;;;;;;;28.13;19.10;;;4.30;93.30;;;;;;2072825;28;20038;-69
2021/04/24 04:31:35;;;;;;;28.38;18.55;;;4.30;93.10;;;;;;2072828;28;20040;-69
2021/04/24 04:32:36;;;;;;;29.42;18.85;;;4.30;93.00;;;;;;2072638;28;20091;-69
2021/04/24 04:33:36;;;;;;;27.83;18.08;;;4.40;92.90;;;;;;2072890;28;20018;-69
2021/04/24 04:34:37;;;;;;;28.27;18.55;;;4.40;92.80;;;;;;2072807;28;20029;-68
2021/04/24 04:35:40;;;;;;;27.73;18.75;;;4.40;92.60;;;;;;2072319;28;20096;-69
2021/04/24 04:36:40;;;;;;;28.30;18.50;;;4.40;92.60;;;;;;2071906;28;20021;-69
2021/04/24 04:37:42;;;;;;;29.65;18.52;;;4.40;92.50;;;;;;2072176;28;20064;-69
2021/04/24 04:38:42;;;;;;;31.00;19.40;;;4.40;92.40;;;;;;2072271;28;20040;-68
2021/04/24 04:39:43;;;;;;;28.35;18.52;;;4.40;92.50;;;;;;2072242;28;20018;-70
2021/04/24 04:40:44;;;;;;;29.83;18.90;;;4.50;92.50;;;;;;2072408;28;20486;-69
2021/04/24 04:41:45;;;;;;;29.00;18.73;;;4.50;92.50;;;;;;2072788;28;20081;-69
2021/04/24 04:42:46;;;;;;;28.63;18.92;;;4.50;92.50;;;;;;2072855;28;20135;-69
2021/04/24 04:43:47;;;;;;;30.23;19.05;;;4.50;92.40;;;;;;2080244;28;20084;-69
2021/04/24 04:44:47;;;;;;;28.42;18.45;;;4.60;92.40;;;;;;2080350;28;20025;-69
2021/04/24 04:45:48;;;;;;;28.80;18.80;;;4.60;92.20;;;;;;2071836;28;20049;-69
2021/04/24 04:46:49;;;;;;;27.77;18.73;;;4.70;92.20;;;;;;2072300;28;20063;-69
2021/04/24 04:47:50;;;;;;;30.35;19.13;;;4.70;92.00;;;;;;2072864;28;20026;-70
2021/04/24 04:48:51;;;;;;;30.77;19.80;;;4.80;91.90;;;;;;2072615;28;20028;-69
2021/04/24 04:49:51;;;;;;;29.15;18.98;;;4.80;91.70;;;;;;2072899;28;20064;-69
2021/04/24 04:50:52;;;;;;;30.27;19.42;;;4.90;91.60;;;;;;2080357;28;20033;-69
2021/04/24 04:51:53;;;;;;;28.60;18.98;;;5.00;91.40;;;;;;2072065;28;20065;-69
2021/04/24 04:52:55;;;;;;;27.50;18.25;;;5.00;91.20;;;;;;2072325;28;20022;-69
2021/04/24 04:53:55;;;;;;;28.90;18.25;;;5.10;91.10;;;;;;2074392;28;20026;-70
2021/04/24 04:54:56;;;;;;;29.85;19.02;;;5.10;90.90;;;;;;2073816;28;20049;-67
2021/04/24 04:55:57;;;;;;;28.92;18.65;;;5.20;91.10;;;;;;2073712;28;20560;-67
2021/04/24 04:56:57;;;;;;;27.42;18.08;;;5.10;90.60;;;;;;2073834;28;20030;-67
2021/04/24 04:57:58;;;;;;;31.92;18.42;;;5.20;90.40;;;;;;2073020;28;20029;-70
2021/04/24 04:58:59;;;;;;;27.15;18.63;;;5.20;90.30;;;;;;2071944;28;20117;-69
2021/04/24 05:00:00;;;;;;;26.40;17.33;;;5.20;90.30;;;;;;2072185;28;20651;-68
2021/04/24 05:01:00;;;;;;;25.90;17.58;;;5.20;90.30;;;;;;2070320;28;20141;-67
2021/04/24 05:02:01;;;;;;;26.52;17.38;;;5.30;90.40;;;;;;2072191;28;20201;-69
2021/04/24 05:03:01;;;;;;;27.95;17.67;;;5.40;90.30;;;;;;2072288;28;20026;-69
2021/04/24 05:04:02;;;;;;;28.92;17.42;;;5.50;90.10;;;;;;2070414;28;20108;-70
2021/04/24 05:05:04;;;;;;;26.20;17.50;;;5.60;89.90;;;;;;2072737;28;20018;-66
2021/04/24 05:06:05;;;;;;;27.52;17.35;;;5.70;89.30;;;;;;2072321;28;20026;-69
2021/04/24 05:07:05;;;;;;;23.48;16.45;;;5.90;88.90;;;;;;2072115;28;20026;-68
2021/04/24 05:08:06;;;;;;;29.30;16.95;;;6.00;88.40;;;;;;2072160;28;20054;-69
2021/04/24 05:09:06;;;;;;;26.00;16.33;;;6.00;87.50;;;;;;2070869;28;20044;-69
2021/04/24 05:10:07;;;;;;;24.40;15.65;;;6.10;86.90;;;;;;2072856;28;20022;-69
2021/04/24 05:11:08;;;;;;;23.90;16.08;;;6.20;86.60;;;;;;2072584;28;20509;-69
2021/04/24 05:12:09;;;;;;;27.60;16.85;;;6.20;86.40;;;;;;2072556;28;20022;-69
2021/04/24 05:13:09;;;;;;;26.00;15.60;;;6.30;86.00;;;;;;2072711;28;20025;-69
2021/04/24 05:14:10;;;;;;;25.27;16.90;;;6.30;85.50;;;;;;2072667;28;20105;-69